Time;durP1;ratioP1;P1;durP2;ratioP2;P2;SDS_P1;SDS_P2;PMS_P1;PMS_P2;Temp;Humidity;BMP_temperature;BMP_pressure;BME280_temperature;BME280_humidity;BME280_pressure;Samples;Min_cycle;Max_cycle;Signal;HPM_P1;HPM_P2
2023/07/18 00:01:15;;;;;;;9.82;4.07;;;14.80;99.90;;;;;;5049931;28;20533;-47
2023/07/18 00:03:41;;;;;;;8.40;3.53;;;14.80;99.90;;;;;;5051744;28;20068;-48
2023/07/18 00:06:06;;;;;;;8.50;3.85;;;14.70;99.90;;;;;;5050670;28;20079;-49
2023/07/18 00:08:32;;;;;;;11.48;4.40;;;14.80;99.90;;;;;;5050518;28;20033;-46
2023/07/18 00:10:58;;;;;;;7.20;3.88;;;14.70;99.90;;;;;;5050594;28;20051;-49
2023/07/18 00:13:24;;;;;;;8.13;4.13;;;14.70;99.90;;;;;;5050696;28;20502;-48
2023/07/18 00:15:49;;;;;;;;;;;14.70;99.90;;;;;;5050245;28;20033;-48
2023/07/18 00:18:15;;;;;;;7.82;3.35;;;14.60;99.90;;;;;;5048133;28;20348;-50
2023/07/18 00:20:41;;;;;;;8.93;3.25;;;14.60;99.90;;;;;;5050557;28;20087;-49
2023/07/18 00:23:10;;;;;;;7.85;4.28;;;14.60;99.90;;;;;;5050045;28;20036;-47
2023/07/18 00:25:36;;;;;;;12.48;4.13;;;14.60;99.90;;;;;;5050288;28;20040;-49
2023/07/18 00:28:03;;;;;;;8.32;4.28;;;14.60;99.90;;;;;;5049257;28;20091;-47
2023/07/18 00:30:29;;;;;;;10.40;4.07;;;14.60;99.90;;;;;;5064420;28;20074;-47
2023/07/18 00:32:56;;;;;;;15.63;4.25;;;14.60;99.90;;;;;;5054148;28;20497;-47
2023/07/18 00:35:22;;;;;;;9.32;3.90;;;14.60;99.90;;;;;;5052362;28;20048;-47
2023/07/18 00:37:49;;;;;;;8.98;4.50;;;14.50;99.90;;;;;;5049973;28;20037;-47
2023/07/18 00:40:14;;;;;;;;;;;14.60;99.90;;;;;;5050533;28;20422;-47
2023/07/18 00:42:42;;;;;;;13.77;4.10;;;14.50;99.90;;;;;;5050028;28;19916;-47
2023/07/18 00:45:09;;;;;;;8.82;3.38;;;14.50;99.90;;;;;;5053344;28;20375;-49
2023/07/18 00:47:37;;;;;;;;;;;14.50;99.90;;;;;;5050410;28;20090;-49
2023/07/18 00:50:10;;;;;;;8.65;3.40;;;14.50;99.90;;;;;;5050276;28;19917;-47
2023/07/18 00:52:40;;;;;;;6.93;2.80;;;14.40;99.90;;;;;;5050183;28;20040;-47
2023/07/18 00:55:08;;;;;;;9.57;2.63;;;14.50;99.90;;;;;;5049658;28;20095;-49
2023/07/18 00:57:35;;;;;;;8.18;3.33;;;14.40;99.90;;;;;;5049792;28;20111;-47
2023/07/18 01:00:01;;;;;;;11.82;3.47;;;14.40;99.90;;;;;;5050293;28;20162;-48
2023/07/18 01:02:28;;;;;;;;;;;14.40;99.90;;;;;;5049173;28;20076;-48
2023/07/18 01:04:54;;;;;;;5.00;3.15;;;14.40;99.90;;;;;;5048998;28;20267;-47
2023/07/18 01:07:20;;;;;;;5.78;3.22;;;14.40;99.90;;;;;;5049958;28;20059;-48
2023/07/18 01:09:47;;;;;;;5.57;3.20;;;14.40;99.90;;;;;;5049359;28;20041;-48
2023/07/18 01:12:12;;;;;;;9.65;3.40;;;14.30;99.90;;;;;;5049971;28;20069;-49
2023/07/18 01:14:39;;;;;;;4.10;3.03;;;14.30;99.90;;;;;;5049803;28;20519;-49
2023/07/18 01:17:05;;;;;;;8.93;4.07;;;14.30;99.90;;;;;;5048486;28;20502;-48
2023/07/18 01:19:31;;;;;;;;;;;14.30;99.90;;;;;;5058547;28;20064;-47
2023/07/18 01:21:56;;;;;;;7.53;3.67;;;14.30;99.90;;;;;;5070121;28;19916;-47
2023/07/18 01:24:22;;;;;;;6.30;2.95;;;14.30;99.90;;;;;;5069589;28;20043;-47
2023/07/18 01:26:48;;;;;;;6.47;3.08;;;14.30;99.90;;;;;;5073110;28;20062;-49
2023/07/18 01:29:13;;;;;;;8.57;3.58;;;14.20;99.90;;;;;;5057332;28;20040;-47
2023/07/18 01:31:39;;;;;;;6.53;3.25;;;14.20;99.90;;;;;;5056354;28;20033;-47
2023/07/18 01:34:05;;;;;;;12.13;3.63;;;14.20;99.90;;;;;;5055819;28;20413;-48
2023/07/18 01:36:30;;;;;;;12.60;4.10;;;14.20;99.90;;;;;;5056271;28;20106;-48
2023/07/18 01:38:56;;;;;;;7.97;3.60;;;14.20;99.90;;;;;;5056417;28;20047;-49
2023/07/18 01:41:21;;;;;;;5.82;3.42;;;14.20;99.90;;;;;;5056437;28;20039;-49
2023/07/18 01:43:47;;;;;;;6.65;3.00;;;14.20;99.90;;;;;;5055998;28;20032;-47
2023/07/18 01:46:13;;;;;;;4.80;3.40;;;14.20;99.90;;;;;;5056155;28;20036;-48
2023/07/18 01:48:38;;;;;;;6.35;3.60;;;14.20;99.90;;;;;;5055439;28;20046;-48
2023/07/18 01:51:06;;;;;;;8.85;4.07;;;14.10;99.90;;;;;;5056411;28;20112;-50
2023/07/18 01:53:32;;;;;;;6.68;2.92;;;14.20;99.90;;;;;;5056138;28;20029;-49
2023/07/18 01:55:58;;;;;;;10.80;3.83;;;14.20;99.90;;;;;;5056170;28;20040;-49
2023/07/18 01:58:24;;;;;;;7.38;3.00;;;14.10;99.90;;;;;;5058110;28;20131;-47
2023/07/18 02:00:49;;;;;;;8.40;3.10;;;14.10;99.90;;;;;;5076466;28;20109;-47
2023/07/18 02:03:15;;;;;;;9.75;3.47;;;14.10;99.90;;;;;;5075992;28;20043;-49
2023/07/18 02:05:40;;;;;;;6.70;3.22;;;14.10;99.90;;;;;;5057447;28;20045;-49
2023/07/18 02:08:06;;;;;;;8.13;3.22;;;14.10;99.90;;;;;;5056591;28;20041;-49
2023/07/18 02:10:32;;;;;;;6.85;3.28;;;14.10;99.90;;;;;;5056424;28;20111;-49
2023/07/18 02:12:58;;;;;;;9.18;3.85;;;14.10;99.90;;;;;;5056411;28;20040;-48
2023/07/18 02:15:24;;;;;;;7.45;3.40;;;14.10;99.90;;;;;;5056325;28;20052;-46
2023/07/18 02:17:51;;;;;;;10.23;3.28;;;14.10;99.90;;;;;;5055813;28;20413;-47
2023/07/18 02:20:16;;;;;;;9.70;3.58;;;14.10;99.90;;;;;;5056153;28;20182;-47
2023/07/18 02:22:44;;;;;;;8.82;3.30;;;14.00;99.90;;;;;;5056224;28;20565;-47
2023/07/18 02:25:10;;;;;;;10.63;3.22;;;14.10;99.90;;;;;;5055862;28;20167;-49
2023/07/18 02:27:40;;;;;;;;;;;14.10;99.90;;;;;;5055605;28;20044;-47
2023/07/18 02:30:11;;;;;;;11.77;3.22;;;14.00;99.90;;;;;;5055162;28;20507;-49
2023/07/18 02:32:38;;;;;;;5.72;2.28;;;14.00;99.90;;;;;;5055948;28;20285;-48
2023/07/18 02:35:05;;;;;;;7.85;3.35;;;13.90;99.90;;;;;;5055561;28;20044;-49
2023/07/18 02:37:31;;;;;;;7.53;2.90;;;13.90;99.90;;;;;;5054999;28;20513;-47
2023/07/18 02:39:56;;;;;;;12.25;3.55;;;13.90;99.90;;;;;;5052837;28;20037;-47
2023/07/18 02:42:22;;;;;;;7.70;3.40;;;13.90;99.90;;;;;;5052731;28;20045;-48
2023/07/18 02:44:48;;;;;;;6.88;3.33;;;13.90;99.90;;;;;;5052023;28;20076;-49
2023/07/18 02:47:14;;;;;;;4.97;3.30;;;13.90;99.90;;;;;;5052609;28;20073;-49
2023/07/18 02:49:40;;;;;;;10.15;3.78;;;13.90;99.90;;;;;;5052805;28;20455;-47
2023/07/18 02:52:07;;;;;;;8.65;2.78;;;13.90;99.90;;;;;;5052646;28;20048;-46
2023/07/18 02:54:32;;;;;;;10.25;3.50;;;13.90;99.90;;;;;;5052220;28;20041;-47
2023/07/18 02:56:58;;;;;;;9.43;2.92;;;13.80;99.90;;;;;;5052918;28;20037;-47
2023/07/18 02:59:24;;;;;;;15.98;3.97;;;13.90;99.90;;;;;;5051912;28;20051;-47
2023/07/18 03:01:50;;;;;;;6.45;3.00;;;13.80;99.90;;;;;;5052743;28;20368;-49
2023/07/18 03:04:16;;;;;;;8.45;3.25;;;13.80;99.90;;;;;;5052302;28;20122;-49
2023/07/18 03:06:42;;;;;;;5.53;3.03;;;13.80;99.90;;;;;;5052333;28;20124;-49
2023/07/18 03:09:09;;;;;;;7.65;2.83;;;13.80;99.90;;;;;;5052794;28;20219;-48
2023/07/18 03:11:35;;;;;;;7.32;3.15;;;13.80;99.90;;;;;;5052418;28;20116;-47
2023/07/18 03:14:00;;;;;;;10.25;4.75;;;13.70;99.90;;;;;;5051699;28;20550;-48
2023/07/18 03:16:26;;;;;;;12.10;3.63;;;13.70;99.90;;;;;;5051572;28;20112;-49
2023/07/18 03:18:54;;;;;;;12.57;2.70;;;13.70;99.90;;;;;;5052198;28;20508;-46
2023/07/18 03:21:19;;;;;;;10.82;3.08;;;13.70;99.90;;;;;;5052098;28;20043;-47
2023/07/18 03:23:45;;;;;;;7.40;2.60;;;13.70;99.90;;;;;;5052052;28;20401;-49
2023/07/18 03:26:11;;;;;;;5.95;2.60;;;13.70;99.90;;;;;;5051249;28;20422;-47
2023/07/18 03:28:36;;;;;;;11.95;3.03;;;13.70;99.90;;;;;;5051415;28;20036;-49
2023/07/18 03:31:02;;;;;;;12.77;3.03;;;13.70;99.90;;;;;;5051958;28;20052;-48
2023/07/18 03:33:28;;;;;;;;;;;13.70;99.90;;;;;;5051831;28;20490;-47
2023/07/18 03:35:54;;;;;;;9.38;2.90;;;13.70;99.90;;;;;;5051619;28;19923;-48
2023/07/18 03:38:19;;;;;;;8.93;2.28;;;13.70;99.90;;;;;;5051575;28;20048;-48
2023/07/18 03:40:47;;;;;;;8.75;2.70;;;13.70;99.90;;;;;;5051602;28;20040;-46
2023/07/18 03:43:12;;;;;;;15.27;3.15;;;13.70;99.90;;;;;;5051492;28;20490;-48
2023/07/18 03:45:38;;;;;;;10.15;2.95;;;13.60;99.90;;;;;;5051431;28;20048;-49
2023/07/18 03:48:04;;;;;;;8.38;2.28;;;13.60;99.90;;;;;;5051667;28;20040;-48
2023/07/18 03:50:29;;;;;;;9.57;2.15;;;13.60;99.90;;;;;;5050476;28;20041;-49
2023/07/18 03:52:55;;;;;;;10.07;2.50;;;13.60;99.90;;;;;;5051340;28;20112;-47
2023/07/18 03:55:21;;;;;;;7.13;2.25;;;13.60;99.90;;;;;;5051282;28;20041;-48
2023/07/18 03:57:46;;;;;;;9.45;2.15;;;13.60;99.90;;;;;;5050919;28;20712;-49
2023/07/18 04:00:13;;;;;;;10.27;2.60;;;13.60;99.90;;;;;;5051593;28;20406;-46
2023/07/18 04:02:43;;;;;;;16.02;3.58;;;13.60;99.90;;;;;;5051369;28;20047;-49
2023/07/18 04:05:11;;;;;;;10.43;3.45;;;13.60;99.90;;;;;;5051005;28;20051;-49
2023/07/18 04:07:36;;;;;;;7.20;2.78;;;13.60;99.90;;;;;;5051148;28;20079;-48
2023/07/18 04:10:02;;;;;;;11.38;3.03;;;13.60;99.90;;;;;;5051296;28;20072;-47
2023/07/18 04:12:28;;;;;;;8.80;2.72;;;13.60;99.90;;;;;;5050703;28;20432;-49
2023/07/18 04:14:54;;;;;;;6.93;2.88;;;13.60;99.90;;;;;;5050889;28;20558;-47
2023/07/18 04:17:20;;;;;;;12.48;4.13;;;13.60;99.90;;;;;;5051204;28;20490;-49
2023/07/18 04:19:45;;;;;;;7.57;3.60;;;13.60;99.90;;;;;;5051229;28;20112;-48
2023/07/18 04:22:11;;;;;;;8.02;2.83;;;13.60;99.90;;;;;;5051185;28;20099;-47
2023/07/18 04:24:36;;;;;;;7.77;2.73;;;13.60;99.90;;;;;;5050621;28;20044;-48
2023/07/18 04:27:02;;;;;;;8.55;3.25;;;13.60;99.90;;;;;;5039530;28;20279;-47
2023/07/18 04:29:28;;;;;;;7.63;2.58;;;13.60;99.90;;;;;;5046964;28;20116;-47
2023/07/18 04:31:53;;;;;;;8.38;2.78;;;13.60;99.90;;;;;;5065895;28;20036;-49
2023/07/18 04:34:19;;;;;;;16.25;3.38;;;13.60;99.90;;;;;;5050408;28;20041;-49
2023/07/18 04:36:45;;;;;;;6.88;2.92;;;13.60;99.90;;;;;;5049857;28;20040;-50
2023/07/18 04:39:10;;;;;;;8.68;2.28;;;13.70;99.90;;;;;;5050112;28;20049;-48
2023/07/18 04:41:36;;;;;;;6.30;2.75;;;13.70;99.90;;;;;;5049893;28;20033;-48
2023/07/18 04:44:02;;;;;;;10.32;3.65;;;13.80;99.90;;;;;;5049794;28;20041;-46
2023/07/18 04:46:27;;;;;;;12.43;2.83;;;13.80;99.90;;;;;;5049906;28;20067;-47
2023/07/18 04:48:53;;;;;;;12.15;3.95;;;13.90;99.90;;;;;;5050298;28;20089;-47
2023/07/18 04:51:18;;;;;;;9.82;3.08;;;13.90;99.90;;;;;;5050217;28;20379;-47
2023/07/18 04:53:44;;;;;;;8.10;2.95;;;13.90;99.90;;;;;;5050065;28;20033;-50
2023/07/18 04:56:09;;;;;;;10.55;3.00;;;14.00;99.90;;;;;;5049440;28;20066;-48
2023/07/18 04:58:35;;;;;;;7.82;2.67;;;14.00;99.90;;;;;;5048838;28;20052;-47
2023/07/18 05:01:02;;;;;;;6.75;2.80;;;14.10;99.90;;;;;;5049680;28;20040;-50
2023/07/18 05:03:28;;;;;;;11.48;3.17;;;14.10;99.90;;;;;;5049855;28;20047;-48
2023/07/18 05:05:56;;;;;;;11.27;3.97;;;14.10;99.90;;;;;;5049856;28;20292;-49
2023/07/18 05:08:21;;;;;;;15.00;3.05;;;14.20;99.90;;;;;;5049967;28;20401;-49
2023/07/18 05:10:47;;;;;;;9.25;3.25;;;14.20;99.90;;;;;;5049472;28;20029;-49
2023/07/18 05:13:13;;;;;;;8.27;3.08;;;14.20;99.90;;;;;;5050035;28;20033;-49
2023/07/18 05:15:42;;;;;;;6.30;3.05;;;14.30;99.90;;;;;;5049911;28;20552;-49
2023/07/18 05:18:07;;;;;;;10.52;3.03;;;14.30;99.90;;;;;;5049886;28;20044;-49
2023/07/18 05:20:33;;;;;;;10.35;3.15;;;14.40;99.90;;;;;;5050023;28;20037;-47
2023/07/18 05:22:59;;;;;;;9.27;3.17;;;14.40;99.90;;;;;;5049986;28;20064;-48
2023/07/18 05:25:25;;;;;;;;;;;14.40;99.90;;;;;;5049538;28;20154;-47
2023/07/18 05:27:50;;;;;;;10.93;2.85;;;14.50;99.90;;;;;;5049702;28;20036;-49
2023/07/18 05:30:18;;;;;;;12.10;3.00;;;14.50;99.90;;;;;;5049816;28;20047;-49
2023/07/18 05:32:45;;;;;;;6.82;2.63;;;14.60;99.90;;;;;;5049564;28;20498;-46
2023/07/18 05:35:13;;;;;;;6.32;2.65;;;14.70;99.90;;;;;;5049393;28;20044;-48
2023/07/18 05:37:40;;;;;;;10.50;3.17;;;14.70;99.90;;;;;;5049454;28;20122;-48
2023/07/18 05:40:09;;;;;;;8.13;2.83;;;14.80;99.90;;;;;;5049539;28;20631;-47
2023/07/18 05:42:38;;;;;;;9.25;2.90;;;14.80;99.90;;;;;;5049787;28;20076;-49
2023/07/18 05:45:05;;;;;;;9.65;2.60;;;14.80;99.90;;;;;;5049590;28;20445;-49
2023/07/18 05:47:31;;;;;;;11.25;2.55;;;14.90;99.90;;;;;;5049467;28;20500;-47
2023/07/18 05:49:56;;;;;;;10.65;3.03;;;14.90;99.90;;;;;;5053755;28;20028;-49
2023/07/18 05:52:22;;;;;;;9.75;3.20;;;14.90;99.90;;;;;;5049870;28;20041;-48
2023/07/18 05:54:49;;;;;;;10.05;3.13;;;15.00;99.90;;;;;;5049502;28;20112;-46
2023/07/18 05:57:14;;;;;;;9.07;2.55;;;15.00;99.90;;;;;;5049712;28;20078;-47
2023/07/18 05:59:40;;;;;;;6.57;3.15;;;15.10;99.90;;;;;;5047125;28;20028;-47
2023/07/18 06:02:06;;;;;;;6.72;2.47;;;15.20;99.90;;;;;;5041273;28;20509;-47
2023/07/18 06:04:31;;;;;;;9.98;3.25;;;15.20;99.90;;;;;;5049006;28;20070;-46
2023/07/18 06:06:57;;;;;;;9.88;2.90;;;15.30;99.90;;;;;;5049431;28;20470;-49
2023/07/18 06:09:22;;;;;;;9.73;3.08;;;15.40;99.90;;;;;;5049636;28;20036;-49
2023/07/18 06:11:48;;;;;;;7.38;2.58;;;15.50;99.90;;;;;;5049361;28;20028;-48
2023/07/18 06:14:14;;;;;;;6.85;3.13;;;15.60;99.90;;;;;;5051448;28;20103;-49
2023/07/18 06:16:39;;;;;;;16.75;3.78;;;15.70;99.90;;;;;;5052836;28;20021;-48
2023/07/18 06:19:05;;;;;;;11.15;3.78;;;15.80;99.90;;;;;;5045699;28;20040;-49
2023/07/18 06:21:31;;;;;;;10.55;3.63;;;15.80;99.90;;;;;;5049551;28;20094;-49
2023/07/18 06:23:57;;;;;;;10.52;3.30;;;15.90;99.90;;;;;;5047473;28;20040;-47
2023/07/18 06:26:23;;;;;;;7.43;3.28;;;16.00;99.90;;;;;;5038369;28;20045;-49
2023/07/18 06:28:49;;;;;;;9.68;2.70;;;16.20;99.90;;;;;;5040833;28;20025;-48
2023/07/18 06:31:14;;;;;;;;;;;16.20;99.90;;;;;;5037114;28;20030;-50
2023/07/18 06:33:40;;;;;;;7.55;3.15;;;16.40;99.90;;;;;;5044546;28;19927;-50
2023/07/18 06:36:06;;;;;;;11.13;2.78;;;16.40;99.90;;;;;;5041174;28;20037;-49
2023/07/18 06:38:32;;;;;;;12.13;2.60;;;16.50;99.90;;;;;;5047946;28;20644;-49
2023/07/18 06:40:57;;;;;;;8.93;3.47;;;16.50;99.90;;;;;;5046544;28;20449;-49
2023/07/18 06:43:24;;;;;;;11.20;2.78;;;16.60;99.90;;;;;;5050635;28;20052;-48
2023/07/18 06:45:50;;;;;;;8.70;3.05;;;16.60;99.90;;;;;;5047941;28;20122;-49
2023/07/18 06:48:16;;;;;;;9.02;3.72;;;16.70;99.90;;;;;;5046931;28;20040;-50
2023/07/18 06:50:46;;;;;;;7.80;3.15;;;16.80;99.90;;;;;;5046977;28;20033;-49
2023/07/18 06:53:17;;;;;;;11.02;3.17;;;16.90;99.90;;;;;;5052132;28;20041;-47
2023/07/18 06:55:43;;;;;;;7.00;2.85;;;17.00;99.90;;;;;;5052421;28;20036;-49
2023/07/18 06:58:09;;;;;;;11.57;3.72;;;17.10;99.90;;;;;;5052268;28;20394;-47
2023/07/18 07:00:36;;;;;;;14.73;3.35;;;17.10;99.90;;;;;;5052348;28;20040;-49
2023/07/18 07:03:01;;;;;;;8.23;3.03;;;17.30;99.90;;;;;;5052026;28;20473;-47
2023/07/18 07:05:27;;;;;;;8.35;3.00;;;17.40;99.90;;;;;;5051563;28;20072;-50
2023/07/18 07:07:53;;;;;;;10.88;2.90;;;17.40;99.90;;;;;;5052226;28;20029;-49
2023/07/18 07:10:19;;;;;;;10.88;3.05;;;17.50;99.90;;;;;;5052162;28;20112;-47
2023/07/18 07:12:45;;;;;;;9.57;2.15;;;17.60;99.90;;;;;;5052007;28;20570;-47
2023/07/18 07:15:11;;;;;;;11.48;2.78;;;17.70;99.90;;;;;;5051397;28;20048;-48
2023/07/18 07:17:38;;;;;;;6.32;2.10;;;17.70;99.90;;;;;;5051688;28;20444;-48
2023/07/18 07:20:06;;;;;;;8.13;2.35;;;17.90;99.90;;;;;;5050937;28;20041;-48
2023/07/18 07:22:32;;;;;;;8.63;2.38;;;17.90;99.90;;;;;;5044826;28;20389;-47
2023/07/18 07:24:57;;;;;;;3.83;1.40;;;18.00;99.90;;;;;;5051337;28;20029;-50
2023/07/18 07:27:23;;;;;;;13.10;1.95;;;18.10;99.90;;;;;;5052042;28;20033;-49
2023/07/18 07:29:49;;;;;;;7.57;1.23;;;18.20;99.90;;;;;;5051761;28;20486;-49
2023/07/18 07:32:15;;;;;;;11.45;2.10;;;18.30;99.90;;;;;;5051398;28;20360;-47
2023/07/18 07:34:41;;;;;;;9.55;2.50;;;18.30;99.90;;;;;;5051505;28;20446;-49
2023/07/18 07:37:08;;;;;;;10.10;1.85;;;18.40;99.90;;;;;;5066960;28;20052;-49
2023/07/18 07:39:34;;;;;;;5.97;2.05;;;18.50;99.90;;;;;;5051403;28;20033;-48
2023/07/18 07:42:00;;;;;;;8.45;1.90;;;18.60;99.90;;;;;;5051450;28;20583;-49
2023/07/18 07:44:26;;;;;;;;;;;18.60;99.90;;;;;;5050578;28;20057;-49
2023/07/18 07:46:52;;;;;;;6.25;1.25;;;18.70;99.90;;;;;;5051037;28;19923;-47
2023/07/18 07:49:18;;;;;;;9.10;1.88;;;18.80;99.90;;;;;;5051163;28;20431;-50
2023/07/18 07:51:43;;;;;;;7.10;1.55;;;18.80;99.90;;;;;;5050368;28;20028;-48
2023/07/18 07:54:09;;;;;;;14.57;1.85;;;18.80;99.90;;;;;;5048299;28;20041;-48
2023/07/18 07:56:34;;;;;;;6.82;1.67;;;18.90;99.90;;;;;;5040712;28;20033;-49
2023/07/18 07:59:00;;;;;;;10.82;1.95;;;19.00;99.90;;;;;;5045279;28;20040;-49
2023/07/18 08:01:26;;;;;;;;;;;19.00;99.90;;;;;;5044856;28;20474;-51
2023/07/18 08:03:52;;;;;;;7.50;1.88;;;19.10;99.90;;;;;;5041206;28;19959;-49
2023/07/18 08:06:17;;;;;;;;;;;19.20;99.90;;;;;;5043467;28;20119;-49
2023/07/18 08:08:43;;;;;;;4.47;1.10;;;19.30;99.90;;;;;;5042672;28;19923;-48
2023/07/18 08:11:09;;;;;;;10.90;1.30;;;19.40;99.90;;;;;;5046364;28;20095;-50
2023/07/18 08:13:34;;;;;;;8.90;1.60;;;19.40;99.90;;;;;;5048300;28;20029;-50
2023/07/18 08:16:00;;;;;;;;;;;19.50;99.90;;;;;;5044353;28;20047;-49
2023/07/18 08:18:26;;;;;;;3.30;0.90;;;19.60;99.90;;;;;;5040328;28;20031;-48
2023/07/18 08:20:51;;;;;;;5.63;1.13;;;19.70;99.90;;;;;;5044498;28;20036;-48
2023/07/18 08:23:17;;;;;;;7.18;0.90;;;19.70;99.90;;;;;;5047182;28;20094;-48
2023/07/18 08:25:43;;;;;;;6.95;0.98;;;19.80;99.90;;;;;;5044523;28;20033;-50
2023/07/18 08:28:09;;;;;;;5.57;1.08;;;19.80;99.90;;;;;;5043551;28;20495;-49
2023/07/18 08:30:35;;;;;;;7.75;0.82;;;19.80;99.90;;;;;;5040751;28;20115;-48
2023/07/18 08:33:01;;;;;;;2.45;0.75;;;19.90;99.90;;;;;;5040686;28;20032;-50
2023/07/18 08:35:26;;;;;;;1.88;0.70;;;19.90;99.90;;;;;;5044720;28;20037;-50
2023/07/18 08:37:52;;;;;;;;;;;20.00;99.90;;;;;;5045081;28;20037;-49
2023/07/18 08:40:18;;;;;;;3.33;0.85;;;20.00;99.90;;;;;;5038280;28;19971;-48
2023/07/18 08:42:44;;;;;;;4.15;0.68;;;20.10;99.90;;;;;;5041523;28;20037;-49
2023/07/18 08:45:13;;;;;;;;;;;20.10;99.90;;;;;;5041076;28;20043;-49
2023/07/18 08:47:40;;;;;;;3.38;0.43;;;20.20;99.90;;;;;;5045689;28;20442;-49
2023/07/18 08:50:10;;;;;;;5.40;0.70;;;20.20;99.90;;;;;;5042802;28;20687;-49
2023/07/18 08:52:36;;;;;;;2.85;0.75;;;20.30;99.90;;;;;;5041954;28;20045;-49
2023/07/18 08:55:04;;;;;;;3.10;0.63;;;20.40;99.90;;;;;;5042151;28;20041;-49
2023/07/18 08:57:30;;;;;;;5.50;0.63;;;20.40;99.90;;;;;;5041694;28;20037;-49
2023/07/18 08:59:59;;;;;;;5.68;0.70;;;20.50;99.90;;;;;;5043487;28;20094;-48
2023/07/18 09:02:24;;;;;;;3.50;0.60;;;20.60;99.90;;;;;;5040545;28;20442;-47
2023/07/18 09:04:50;;;;;;;3.67;0.70;;;20.60;99.90;;;;;;5044213;28;20129;-49
2023/07/18 09:07:19;;;;;;;3.25;0.75;;;20.70;99.90;;;;;;5053815;28;20107;-50
2023/07/18 09:09:48;;;;;;;2.22;0.60;;;20.80;99.90;;;;;;5040513;28;20398;-49
2023/07/18 09:12:14;;;;;;;7.00;0.30;;;20.80;99.90;;;;;;5041733;28;20041;-47
2023/07/18 09:14:40;;;;;;;2.45;0.50;;;20.90;99.90;;;;;;5041664;28;20040;-48
2023/07/18 09:17:06;;;;;;;;;;;21.00;99.90;;;;;;5045429;28;20120;-48
2023/07/18 09:19:48;;;;;;;9.97;0.73;;;21.10;99.90;;;;;;5035928;28;19975;-52
2023/07/18 09:22:16;;;;;;;5.13;0.60;;;21.10;99.90;;;;;;5033127;28;20299;-51
2023/07/18 09:24:43;;;;;;;3.20;0.50;;;21.10;99.80;;;;;;5036127;28;20048;-51
2023/07/18 09:27:14;;;;;;;1.75;0.38;;;21.10;99.50;;;;;;5030364;28;20038;-51
2023/07/18 09:29:44;;;;;;;3.30;0.80;;;21.10;99.00;;;;;;5037314;28;20379;-54
2023/07/18 09:32:18;;;;;;;2.53;0.30;;;21.20;98.80;;;;;;5036223;28;20409;-53
2023/07/18 09:34:55;;;;;;;4.82;0.40;;;21.20;99.40;;;;;;5040897;28;20033;-51
2023/07/18 09:37:22;;;;;;;3.20;0.20;;;21.20;98.30;;;;;;5042330;28;20049;-52
2023/07/18 09:39:48;;;;;;;3.40;0.30;;;21.20;98.80;;;;;;5034253;28;20056;-55
2023/07/18 09:42:17;;;;;;;0.60;0.32;;;21.30;99.00;;;;;;5040855;28;20046;-52
2023/07/18 09:44:49;;;;;;;4.35;0.45;;;21.40;98.50;;;;;;5038287;28;20108;-51
2023/07/18 09:47:15;;;;;;;2.30;0.38;;;21.60;98.80;;;;;;5040880;28;20626;-51
2023/07/18 09:49:45;;;;;;;2.22;0.60;;;21.70;98.80;;;;;;5042386;28;20029;-51
2023/07/18 09:52:11;;;;;;;1.25;0.30;;;21.80;98.50;;;;;;5038141;28;20383;-51
2023/07/18 09:54:39;;;;;;;1.63;0.50;;;21.90;97.70;;;;;;5043747;28;20127;-52
2023/07/18 09:57:11;;;;;;;2.47;0.30;;;21.90;98.00;;;;;;5045462;28;20057;-53
2023/07/18 09:59:39;;;;;;;3.28;0.30;;;21.90;97.70;;;;;;5036234;28;20044;-51
2023/07/18 10:02:10;;;;;;;4.30;0.60;;;21.90;97.30;;;;;;5045030;28;20053;-52
2023/07/18 10:04:36;;;;;;;1.27;0.20;;;21.80;96.80;;;;;;5053575;28;20155;-51
2023/07/18 10:07:03;;;;;;;4.10;0.82;;;21.90;97.30;;;;;;5043713;28;20053;-49
2023/07/18 10:09:31;;;;;;;4.78;0.47;;;21.90;96.90;;;;;;5041543;28;20033;-52
2023/07/18 10:12:03;;;;;;;3.47;0.68;;;22.00;97.80;;;;;;5043065;28;20095;-51
2023/07/18 10:14:29;;;;;;;3.00;0.30;;;22.10;96.70;;;;;;5049494;28;20095;-52
2023/07/18 10:16:58;;;;;;;2.60;0.52;;;22.10;96.90;;;;;;5047447;28;20037;-53
2023/07/18 10:19:24;;;;;;;1.15;0.20;;;22.10;96.70;;;;;;5050716;28;20064;-51
2023/07/18 10:21:53;;;;;;;;;;;22.10;96.80;;;;;;5053480;28;20071;-51
2023/07/18 10:24:19;;;;;;;1.27;0.40;;;22.20;96.70;;;;;;5047390;28;19928;-56
2023/07/18 10:26:54;;;;;;;1.25;0.38;;;22.20;96.90;;;;;;5046515;28;20041;-57
2023/07/18 10:29:20;;;;;;;0.80;0.30;;;22.30;96.60;;;;;;5045356;28;20033;-50
2023/07/18 10:31:47;;;;;;;;;;;22.30;96.20;;;;;;5052098;28;20516;-51
2023/07/18 10:34:18;;;;;;;1.77;0.20;;;22.40;96.40;;;;;;5042675;28;19920;-52
2023/07/18 10:37:14;;;;;;;2.75;0.32;;;22.40;95.90;;;;;;5041577;28;20046;-51
2023/07/18 10:39:43;;;;;;;3.05;0.30;;;22.40;95.90;;;;;;5033030;28;20049;-52
2023/07/18 10:42:28;;;;;;;1.48;0.40;;;22.40;96.10;;;;;;5039152;28;20045;-55
2023/07/18 10:45:04;;;;;;;3.85;0.47;;;22.40;95.90;;;;;;5040454;28;20410;-51
2023/07/18 10:47:31;;;;;;;2.72;0.40;;;22.50;95.80;;;;;;5038304;28;20037;-52
2023/07/18 10:49:57;;;;;;;1.40;0.30;;;22.60;96.10;;;;;;5040547;28;20124;-52
2023/07/18 10:52:23;;;;;;;1.42;0.40;;;22.60;95.90;;;;;;5045483;28;20095;-51
2023/07/18 10:54:49;;;;;;;;;;;22.60;96.20;;;;;;5045063;28;20046;-52
2023/07/18 10:57:15;;;;;;;1.88;0.52;;;22.60;95.30;;;;;;5049137;28;19916;-51
2023/07/18 10:59:44;;;;;;;2.95;0.60;;;22.70;96.50;;;;;;5049651;28;20044;-53
2023/07/18 11:02:10;;;;;;;3.78;0.30;;;22.70;95.70;;;;;;5045790;28;20135;-51
2023/07/18 11:04:36;;;;;;;4.60;0.35;;;22.70;96.10;;;;;;5041591;28;20052;-55
2023/07/18 11:07:02;;;;;;;;;;;22.70;95.90;;;;;;5045719;28;20091;-51
2023/07/18 11:09:27;;;;;;;0.73;0.30;;;22.70;95.10;;;;;;5043863;28;20343;-52
2023/07/18 11:11:54;;;;;;;4.13;0.43;;;22.90;96.40;;;;;;5047990;28;20025;-50
2023/07/18 11:14:20;;;;;;;1.98;0.80;;;22.90;95.00;;;;;;5045789;28;20069;-50
2023/07/18 11:16:45;;;;;;;;;;;22.80;94.70;;;;;;5042767;28;20071;-52
2023/07/18 11:19:13;;;;;;;1.58;0.50;;;22.70;95.10;;;;;;5042759;28;20378;-52
2023/07/18 11:21:39;;;;;;;2.85;0.55;;;22.80;95.20;;;;;;5042983;28;20081;-51
2023/07/18 11:24:04;;;;;;;;;;;22.80;96.10;;;;;;5049162;28;20069;-51
2023/07/18 11:26:30;;;;;;;2.20;0.30;;;22.90;94.90;;;;;;5040825;28;19928;-51
2023/07/18 11:28:58;;;;;;;;;;;22.90;95.10;;;;;;5037459;28;20041;-52
2023/07/18 11:31:28;;;;;;;3.15;0.50;;;23.00;95.10;;;;;;5043700;28;20329;-51
2023/07/18 11:33:55;;;;;;;4.72;0.40;;;23.00;95.10;;;;;;5043400;28;20037;-52
2023/07/18 11:36:22;;;;;;;2.78;0.30;;;23.00;95.40;;;;;;5037770;28;20075;-51
2023/07/18 11:38:51;;;;;;;2.92;0.60;;;23.10;95.30;;;;;;5033116;28;20397;-55
2023/07/18 11:41:41;;;;;;;3.65;0.25;;;23.20;95.00;;;;;;5041655;28;20521;-53
2023/07/18 11:44:08;;;;;;;3.70;0.50;;;23.30;94.60;;;;;;5035988;28;20131;-51
2023/07/18 11:46:35;;;;;;;2.45;0.30;;;23.30;95.00;;;;;;5046534;28;20474;-51
2023/07/18 11:49:01;;;;;;;1.55;0.30;;;23.30;94.20;;;;;;5043866;28;20046;-53
2023/07/18 11:51:27;;;;;;;2.10;0.20;;;23.30;95.00;;;;;;5048397;28;20057;-52
2023/07/18 11:53:53;;;;;;;1.83;0.30;;;23.40;94.70;;;;;;5041243;28;20041;-51
2023/07/18 11:56:20;;;;;;;1.35;0.20;;;23.40;93.70;;;;;;5044233;28;20414;-53
2023/07/18 11:58:45;;;;;;;1.10;0.20;;;23.40;93.80;;;;;;5042091;28;20076;-51
2023/07/18 12:01:11;;;;;;;0.55;0.30;;;23.40;95.10;;;;;;5038496;28;20064;-50
2023/07/18 12:03:37;;;;;;;4.25;0.35;;;23.50;94.50;;;;;;5042588;28;20085;-51
2023/07/18 12:06:02;;;;;;;1.63;0.30;;;23.50;93.80;;;;;;5035678;28;20049;-50
2023/07/18 12:08:28;;;;;;;1.05;0.50;;;23.50;93.70;;;;;;5043863;28;20044;-51
2023/07/18 12:10:53;;;;;;;1.92;0.30;;;23.60;93.80;;;;;;5038988;28;20034;-50
2023/07/18 12:13:19;;;;;;;2.33;0.28;;;23.60;94.30;;;;;;5043632;28;20123;-50
2023/07/18 12:15:45;;;;;;;0.65;0.20;;;23.60;93.90;;;;;;5043558;28;20033;-51
2023/07/18 12:18:11;;;;;;;2.58;0.38;;;23.50;93.20;;;;;;5038146;28;20033;-52
2023/07/18 12:20:37;;;;;;;0.70;0.28;;;23.50;93.20;;;;;;5038603;28;20037;-50
2023/07/18 12:23:03;;;;;;;2.78;0.30;;;23.60;94.00;;;;;;5036105;28;20087;-51
2023/07/18 12:25:31;;;;;;;1.20;0.15;;;23.70;93.80;;;;;;5037470;28;20548;-50
2023/07/18 12:28:00;;;;;;;0.40;0.17;;;23.70;93.20;;;;;;5035013;28;20107;-51
2023/07/18 12:30:27;;;;;;;3.20;0.30;;;23.70;93.20;;;;;;5042037;28;20037;-51
2023/07/18 12:32:53;;;;;;;1.65;0.30;;;23.70;94.00;;;;;;5038862;28;20521;-50
2023/07/18 12:35:20;;;;;;;2.03;0.20;;;23.70;93.00;;;;;;5035948;28;20069;-51
2023/07/18 12:37:46;;;;;;;1.38;0.40;;;23.70;92.70;;;;;;5044509;28;20037;-50
2023/07/18 12:40:12;;;;;;;0.88;0.10;;;23.80;92.90;;;;;;5044091;28;20465;-51
2023/07/18 12:42:37;;;;;;;2.92;0.20;;;23.80;92.30;;;;;;5041070;28;20067;-50
2023/07/18 12:45:03;;;;;;;2.30;0.30;;;23.70;91.80;;;;;;5042947;28;20392;-50
2023/07/18 12:47:29;;;;;;;2.05;0.20;;;23.80;92.90;;;;;;5053351;28;20450;-50